Meteo Giornale » Osservazioni meteo Russia » Surgut
ore: 22:00 - Osservazioni Meteo Surgut
Lat. 61° 15' N Lon. 73° 30' E Alt. 44 metri s.l.m.
8 °C
Pioggia
Temp. 24 Ore
1 °C
12 °C
Ovest/Nord-Ovest
18 Km/h
Dew point 8 °C
Umidità 100 %
Visibilità 10 Km
Il sole sorge alle ore 04:54
Il sole tramonta alle ore 19:17
| Data e Ora | Cielo e Fenomeni | T °C | DP °C | Um. % | Pres. hPa | Vis. km | Vento km/h | |
|---|---|---|---|---|---|---|---|---|
| Oggi h: 22:00 | Pioggia | 8 | 8 | 100 | 1001 | 10 | O/NO 18 | |
| Oggi h: 21:30 | Pioggia | 8 | 8 | 100 | 1001 | 10 | O/NO 18 | |
| Oggi h: 21:00 | Molto Nuvoloso | 8 | 8 | 100 | 1001 | 10 | O/NO 18 | |
| Oggi h: 20:30 | Molto Nuvoloso | 8 | 6 | 87 | 1002 | 10 | NO 21.6 | |
| Oggi h: 20:00 | Pioggia | 8 | 6 | 87 | 1002 | 10 | NO 21.6 | |
| Oggi h: 19:30 | Pioggia | 9 | 5 | 75 | 1002 | 10 | N/NO 21.6 | |
| Oggi h: 19:00 | Nuvoloso | 9 | 4 | 70 | 1002 | 10 | N/NO 21.6 | |
| Oggi h: 18:30 | Nuvoloso | 9 | 5 | 75 | 1002 | 10 | NO 18 | |
| Oggi h: 18:00 | Nuvoloso | 8 | 5 | 81 | 1002 | 10 | N/NO 18 | |
| Oggi h: 17:30 | Pioggia | 8 | 5 | 81 | 1003 | 10 | N 14.4 | |
| Oggi h: 17:00 | Nuvoloso | 10 | 4 | 66 | 1003 | 10 | N/NO 25.2 | |
| Oggi h: 16:30 | Nuvoloso | 10 | 4 | 66 | 1002 | 10 | N 18 | |
| Oggi h: 15:30 | Pioggia | 8 | 7 | 93 | 1002 | 10 | N/NE 18 | |
| Oggi h: 15:09 | Pioggia | 8 | 7 | 93 | 1002 | 10 | NE 21.6 | |
| Oggi h: 15:00 | Pioggia | 9 | 5 | 75 | 1002 | 10 | N 28.8 | |
| Oggi h: 14:57 | Pioggia | 10 | 5 | 71 | 1002 | 10 | N/NO 28.8 | |
| Oggi h: 14:30 | Nuvoloso | 12 | 5 | 62 | 1002 | 10 | NO 18 | |
| Oggi h: 14:00 | Nuvoloso | 11 | 4 | 61 | 1002 | 10 | N 18 | |
| Oggi h: 13:30 | Nuvoloso | 11 | 6 | 71 | 1001 | 10 | N/NO 18 | |
| Oggi h: 13:00 | Nuvoloso | 10 | 7 | 81 | 1002 | 10 | N/NO 18 | |
| Oggi h: 12:30 | Nuvoloso | 9 | 9 | 100 | 1002 | 10 | N/NO 10.8 | |
| Oggi h: 12:00 | Poco Nuvoloso | 8 | 8 | 100 | 1002 | 10 | N 10.8 | |
| Oggi h: 11:30 | Nuvoloso | 8 | 8 | 100 | 1002 | 10 | N 7.2 | |
| Oggi h: 11:00 | Molto Nuvoloso | 8 | 8 | 100 | 1002 | 10 | N 10.8 | |
| Oggi h: 10:30 | Molto Nuvoloso | 7 | 7 | 100 | 1002 | 10 | N 7.2 | |
| Oggi h: 10:00 | Pioggia | 7 | 7 | 100 | 1002 | 9 | N/NE 10.8 | |
| Oggi h: 09:30 | Molto Nuvoloso | 7 | 7 | 100 | 1002 | 10 | N/NE 10.8 | |
| Oggi h: 09:00 | Molto Nuvoloso | 7 | 7 | 100 | 1002 | 10 | N 7.2 | |
| Oggi h: 08:42 | Molto Nuvoloso | 7 | 7 | 100 | 1002 | 10 | N 7.2 | |
| Oggi h: 08:31 | Pioggia Foschia | 6 | 6 | 100 | 1002 | 5 | N 7.2 | |
| Oggi h: 08:30 | Pioggia Foschia | 6 | 6 | 100 | 1002 | 2 | N 7.2 | |
| Oggi h: 08:27 | Pioggia Nebbia a tratti | 5 | 5 | 100 | 1002 | 0.8 | N 7.2 | |
| Oggi h: 08:20 | Nebbia a tratti | 5 | 5 | 100 | 1002 | 0.55 | N 7.2 | |
| Oggi h: 08:10 | Nebbia | 5 | 5 | 100 | 1002 | 0.4 | N 7.2 | |
| Oggi h: 08:02 | Nebbia | 5 | 5 | 100 | 1002 | 0.35 | N 7.2 | |
| Oggi h: 08:00 | Nebbia | 5 | 5 | 100 | 1002 | 0.35 | N 7.2 | |
| Oggi h: 07:48 | Nebbia | 4 | 4 | 100 | 1002 | 0.3 | N 7.2 | |
| Oggi h: 07:32 | Nebbia | 3 | 3 | 100 | 1002 | 0.25 | N 7.2 | |
| Oggi h: 07:30 | Nebbia | 3 | 3 | 100 | 1002 | 0.25 | N 7.2 | |
| Oggi h: 07:00 | Nebbia | 3 | 3 | 100 | 1002 | 0.15 | N 7.2 | |
| Oggi h: 06:46 | Nebbia | 2 | 2 | 100 | 1002 | 0.1 | O/NO 10.8 | |
| Oggi h: 06:35 | Nebbia | 2 | 2 | 100 | 1002 | 0.15 | N 7.2 | |
| Oggi h: 06:30 | Nebbia | 1 | 1 | 100 | 1002 | 0.15 | N 7.2 | |
| Oggi h: 06:23 | Nebbia | 1 | 1 | 100 | 1003 | 0.25 | N 7.2 | |
| Oggi h: 06:15 | Nebbia | 1 | 1 | 100 | 1003 | 0.4 | N 7.2 | |
| Oggi h: 06:11 | Nebbia | 1 | 1 | 100 | 1003 | 0.5 | N 7.2 | |
| Oggi h: 06:00 | Nebbia | 1 | 1 | 100 | 1003 | 0.5 | N 3.6 | |
| Oggi h: 05:30 | Nebbia a tratti | 1 | 1 | 100 | 1003 | 0.4 | N 3.6 | |
| Oggi h: 05:28 | Nebbia a tratti | 1 | 1 | 100 | 1003 | 0.4 | N 3.6 | |
| Oggi h: 05:03 | Nebbia | 1 | 1 | 100 | 1003 | 0.1 | N 3.6 | |
| Oggi h: 05:00 | Nebbia | 1 | 1 | 100 | 1003 | 0.15 | N 3.6 | |
| Oggi h: 04:44 | Nebbia | 2 | 2 | 100 | 1003 | 0.15 | N 7.2 | |
| Oggi h: 04:36 | Nebbia | 2 | 2 | 100 | 1003 | 0.2 | N 3.6 | |
| Oggi h: 04:33 | Nebbia | 2 | 2 | 100 | 1003 | 0.2 | N 3.6 | |
| Oggi h: 04:30 | Nebbia a tratti | 2 | 2 | 100 | 1003 | 0.25 | N 7.2 | |
| Oggi h: 04:27 | Nebbia a tratti | 2 | 2 | 100 | 1003 | 0.6 | N 3.6 | |
| Oggi h: 04:25 | Nebbia a tratti | 2 | 2 | 100 | 1003 | 0.15 | N 3.6 | |
| Oggi h: 04:24 | Nebbia a tratti | 2 | 2 | 100 | 1003 | 0.2 | N 3.6 | |
| Oggi h: 04:00 | Nuvoloso | 1 | 1 | 100 | 1003 | 9 | N 3.6 | |
| Oggi h: 03:30 | Poco Nuvoloso | 3 | 3 | 100 | 1003 | 10 | N 3.6 | |
| Oggi h: 03:00 | Nuvoloso | 4 | 4 | 100 | 1003 | 10 | N 7.2 | |
| Oggi h: 02:30 | Nuvoloso | 4 | 4 | 100 | 1003 | 10 | N 3.6 | |
| Oggi h: 02:00 | Nuvoloso | 3 | 3 | 100 | 1003 | 10 | N 3.6 | |
| Oggi h: 01:30 | Poco Nuvoloso | 4 | 4 | 100 | 1003 | 10 | N 7.2 | |
| Oggi h: 01:00 | Nuvoloso | 5 | 5 | 100 | 1003 | 10 | N 7.2 | |
| Oggi h: 00:30 | Nuvoloso | 5 | 5 | 100 | 1004 | 10 | N 7.2 | |
| Oggi h: 00:00 | Nuvoloso | 4 | 4 | 100 | 1004 | 10 | N 3.6 | |
| Ieri h: 23:30 | Nuvoloso | 4 | 4 | 100 | 1004 | 10 | N 3.6 | |
| Ieri h: 23:00 | Poco Nuvoloso | 4 | 4 | 100 | 1004 | 10 | N 3.6 | |



